Terminal Aerodrome Forecast
Issued by NWS

Home | Current Version | Previous Version | Text Only | Print | Product List | Glossary On
Versions: 1 2 3 4 5 6 7 8 9 10 11 12 13
000
FTUS45 KABQ 270527
TAFAEG
TAF
KAEG 270527Z 2706/2806 18008KT P6SM BKN100
     FM270800 01005KT P6SM SCT120
     FM271700 17010KT P6SM SCT200
     FM280000 20008KT P6SM BKN200=

USA.gov is the U.S. government's official web portal to all federal, state and local government web resources and services.